Time;durP1;ratioP1;P1;durP2;ratioP2;P2;SDS_P1;SDS_P2;PMS_P1;PMS_P2;Temp;Humidity;BMP_temperature;BMP_pressure;BME280_temperature;BME280_humidity;BME280_pressure;Samples;Min_cycle;Max_cycle;Signal;HPM_P1;HPM_P2
2023/01/23 00:01:58;;;;;;;14.02;9.00;;;10.00;74.70;;;;;;5036869;28;20045;-77
2023/01/23 00:04:24;;;;;;;11.25;7.78;;;10.00;74.40;;;;;;5019417;28;20041;-77
2023/01/23 00:06:50;;;;;;;12.02;8.40;;;10.00;74.40;;;;;;5038062;28;20127;-78
2023/01/23 00:09:16;;;;;;;13.00;9.00;;;10.00;74.50;;;;;;5009218;28;20044;-77
2023/01/23 00:11:42;;;;;;;16.30;9.52;;;10.10;74.70;;;;;;5019196;28;20141;-79
2023/01/23 00:14:09;;;;;;;16.00;10.25;;;10.00;74.00;;;;;;5022252;28;20174;-77
2023/01/23 00:16:35;;;;;;;17.75;10.50;;;10.00;72.70;;;;;;5021867;28;20063;-77
2023/01/23 00:19:02;;;;;;;17.23;11.25;;;9.90;71.80;;;;;;5037748;28;20715;-78
2023/01/23 00:21:29;;;;;;;18.75;11.20;;;9.80;71.00;;;;;;5020598;28;20040;-77
2023/01/23 00:23:57;;;;;;;18.98;11.05;;;9.80;70.70;;;;;;5038584;28;20034;-77
2023/01/23 00:26:25;;;;;;;17.98;11.60;;;9.70;70.30;;;;;;5025579;28;20060;-76
2023/01/23 00:28:53;;;;;;;17.70;11.43;;;9.60;70.20;;;;;;5036786;28;23119;-76
2023/01/23 00:31:23;;;;;;;17.02;10.82;;;9.60;70.20;;;;;;5037540;28;20025;-83
2023/01/23 00:33:54;;;;;;;21.00;12.00;;;9.60;70.10;;;;;;5023612;28;20033;-82
2023/01/23 00:36:22;;;;;;;18.48;11.18;;;9.50;70.00;;;;;;5037846;28;20026;-81
2023/01/23 00:38:48;;;;;;;18.05;11.38;;;9.50;70.00;;;;;;5008291;28;20488;-81
2023/01/23 00:41:14;;;;;;;19.15;11.82;;;9.40;69.80;;;;;;5027657;28;20032;-81
2023/01/23 00:43:40;;;;;;;20.88;11.93;;;9.40;69.80;;;;;;5008293;28;20032;-82
2023/01/23 00:46:06;;;;;;;19.05;12.70;;;9.40;69.80;;;;;;5023795;28;20037;-80
2023/01/23 00:48:32;;;;;;;22.30;13.10;;;9.30;69.70;;;;;;5006807;28;20081;-81
2023/01/23 00:50:58;;;;;;;22.85;13.35;;;9.30;69.70;;;;;;5022871;28;20037;-81
2023/01/23 00:53:24;;;;;;;19.58;12.40;;;9.30;69.70;;;;;;5025295;28;20037;-84
2023/01/23 00:55:50;;;;;;;20.52;12.93;;;9.20;69.60;;;;;;5023147;28;20354;-84
2023/01/23 00:58:17;;;;;;;20.95;13.02;;;9.20;69.60;;;;;;5026639;28;20941;-84
2023/01/23 01:00:43;;;;;;;22.85;14.05;;;9.20;69.60;;;;;;5023916;28;20041;-85
2023/01/23 01:03:09;;;;;;;21.52;13.48;;;9.20;69.70;;;;;;5010765;28;20033;-85
2023/01/23 01:05:35;;;;;;;24.00;13.88;;;9.10;69.60;;;;;;5024721;28;20427;-84
2023/01/23 01:08:03;;;;;;;24.45;13.85;;;9.10;69.60;;;;;;5011258;28;20041;-84
2023/01/23 01:10:30;;;;;;;22.63;13.88;;;9.10;69.60;;;;;;5026218;28;20029;-83
2023/01/23 01:12:57;;;;;;;25.75;15.45;;;9.10;69.60;;;;;;5027601;28;20466;-83
2023/01/23 01:15:24;;;;;;;20.95;12.38;;;9.10;69.50;;;;;;5029985;28;20029;-85
2023/01/23 01:17:53;;;;;;;21.95;13.10;;;9.00;69.50;;;;;;5011075;28;20133;-86
2023/01/23 01:20:24;;;;;;;20.77;13.50;;;9.00;69.40;;;;;;5010423;28;20088;-88
2023/01/23 01:22:54;;;;;;;21.27;13.65;;;9.00;69.50;;;;;;5023756;28;20090;-86
2023/01/23 01:25:21;;;;;;;22.35;12.90;;;9.00;69.40;;;;;;5027020;28;20468;-85
2023/01/23 01:27:47;;;;;;;20.52;13.48;;;9.00;69.30;;;;;;5038430;28;20045;-86
2023/01/23 01:30:13;;;;;;;20.88;13.30;;;8.90;69.80;;;;;;5021027;28;20036;-86
2023/01/23 01:32:40;;;;;;;20.70;12.93;;;8.90;69.30;;;;;;5020491;28;20470;-84
2023/01/23 01:35:07;;;;;;;21.35;13.40;;;8.90;69.20;;;;;;5030978;28;20044;-84
2023/01/23 01:37:35;;;;;;;20.88;11.82;;;8.90;69.10;;;;;;5022108;28;20061;-85
2023/01/23 01:40:02;;;;;;;21.30;12.93;;;8.80;69.10;;;;;;5022165;28;20037;-85
2023/01/23 01:42:28;;;;;;;18.67;12.25;;;8.80;69.10;;;;;;5024505;28;20073;-84
2023/01/23 01:44:59;;;;;;;19.65;12.80;;;8.80;69.10;;;;;;5009219;28;20037;-83
2023/01/23 01:47:26;;;;;;;21.00;12.50;;;8.80;69.00;;;;;;5022184;28;20053;-83
2023/01/23 01:49:56;;;;;;;19.98;13.02;;;8.80;69.00;;;;;;5022621;28;20040;-82
2023/01/23 01:52:23;;;;;;;17.40;11.40;;;8.80;69.10;;;;;;5023234;28;20091;-82
2023/01/23 01:54:57;;;;;;;16.98;11.55;;;8.80;69.10;;;;;;5021608;28;20059;-82
2023/01/23 01:57:25;;;;;;;17.02;10.95;;;8.70;69.20;;;;;;5038594;28;20061;-82
2023/01/23 01:59:59;;;;;;;17.73;11.30;;;8.70;69.10;;;;;;5007409;28;20386;-82
2023/01/23 02:02:30;;;;;;;16.63;11.30;;;8.70;69.20;;;;;;5025943;28;20037;-83
2023/01/23 02:05:09;;;;;;;18.67;11.27;;;8.70;69.30;;;;;;5006744;28;20500;-82
2023/01/23 02:07:48;;;;;;;16.80;10.05;;;8.70;69.20;;;;;;5009693;28;20068;-81
2023/01/23 02:10:15;;;;;;;17.88;10.65;;;8.70;69.30;;;;;;5039988;28;20045;-83
2023/01/23 02:12:46;;;;;;;16.95;10.95;;;8.60;69.30;;;;;;5040708;28;20124;-83
2023/01/23 02:15:12;;;;;;;16.90;10.85;;;8.70;69.40;;;;;;5024287;28;20033;-84
2023/01/23 02:17:39;;;;;;;20.70;11.27;;;8.60;69.40;;;;;;5025784;28;20080;-82
2023/01/23 02:20:11;;;;;;;19.77;11.82;;;8.60;69.40;;;;;;5040051;28;20118;-82
2023/01/23 02:22:52;;;;;;;17.27;10.35;;;8.60;69.30;;;;;;5029868;28;20182;-81
2023/01/23 02:25:27;;;;;;;18.50;11.45;;;8.60;69.20;;;;;;5029311;28;20038;-82
2023/01/23 02:27:53;;;;;;;18.45;11.18;;;8.60;69.10;;;;;;5013782;28;20056;-83
2023/01/23 02:30:20;;;;;;;18.58;11.32;;;8.60;69.00;;;;;;5025038;28;20029;-81
2023/01/23 02:32:47;;;;;;;21.63;12.02;;;8.60;69.00;;;;;;5026875;28;20037;-82
2023/01/23 02:35:27;;;;;;;21.77;12.27;;;8.60;69.20;;;;;;5009491;28;20551;-83
2023/01/23 02:38:01;;;;;;;21.63;12.40;;;8.60;69.10;;;;;;5045591;28;22258;-83
2023/01/23 02:40:36;;;;;;;22.10;12.48;;;8.60;69.20;;;;;;5030428;28;20495;-84
2023/01/23 02:43:04;;;;;;;20.73;11.95;;;8.50;69.20;;;;;;5013078;28;20041;-85
2023/01/23 02:45:31;;;;;;;24.27;13.23;;;8.50;69.10;;;;;;5025777;28;20115;-85
2023/01/23 02:47:57;;;;;;;22.08;12.75;;;8.50;69.20;;;;;;5041359;28;20124;-82
2023/01/23 02:50:23;;;;;;;24.05;13.07;;;8.50;69.20;;;;;;5014450;28;20040;-86
2023/01/23 02:52:50;;;;;;;21.42;12.82;;;8.50;69.80;;;;;;5003949;28;20025;-85
2023/01/23 02:55:16;;;;;;;20.60;12.40;;;8.50;69.10;;;;;;5030008;28;20048;-83
2023/01/23 02:57:44;;;;;;;28.13;13.30;;;8.50;69.10;;;;;;5022831;28;20033;-84
2023/01/23 03:00:19;;;;;;;22.17;12.57;;;8.50;69.10;;;;;;5012214;28;20041;-83
2023/01/23 03:02:47;;;;;;;24.20;13.52;;;8.50;69.10;;;;;;5029448;28;20583;-86
2023/01/23 03:05:13;;;;;;;26.92;14.63;;;8.50;69.20;;;;;;5041327;28;20037;-83
2023/01/23 03:07:39;;;;;;;25.45;13.90;;;8.50;69.10;;;;;;5023200;28;20036;-82
2023/01/23 03:10:08;;;;;;;22.83;13.75;;;8.50;69.10;;;;;;5030037;28;20021;-84
2023/01/23 03:12:38;;;;;;;23.17;13.38;;;8.50;69.20;;;;;;5029875;28;20037;-80
2023/01/23 03:15:05;;;;;;;27.35;14.48;;;8.40;69.20;;;;;;4996516;28;20120;-80
2023/01/23 03:17:31;;;;;;;26.13;14.50;;;8.40;69.20;;;;;;5011509;28;20036;-79
2023/01/23 03:19:58;;;;;;;26.60;14.73;;;8.50;69.40;;;;;;5010539;28;20041;-78
2023/01/23 03:22:25;;;;;;;30.67;14.32;;;8.50;69.50;;;;;;5025645;28;20477;-77
2023/01/23 03:24:51;;;;;;;27.75;14.10;;;8.40;69.50;;;;;;5011910;28;20040;-77
2023/01/23 03:27:17;;;;;;;27.23;14.40;;;8.40;69.50;;;;;;5027913;28;20060;-77
2023/01/23 03:32:32;;;;;;;25.83;14.65;;;8.50;69.40;;;;;;5028003;28;20434;-77
2023/01/23 03:34:58;;;;;;;27.38;14.18;;;8.40;69.30;;;;;;5021203;28;20385;-77
2023/01/23 03:37:24;;;;;;;24.25;12.80;;;8.40;69.30;;;;;;5009921;28;20036;-77
2023/01/23 03:42:35;;;;;;;23.17;11.98;;;8.40;69.00;;;;;;5024704;28;20047;-79
2023/01/23 03:45:03;;;;;;;24.48;13.27;;;8.40;68.90;;;;;;5024195;28;20060;-78
2023/01/23 03:47:33;;;;;;;19.52;10.55;;;8.40;69.40;;;;;;5023495;28;20040;-76
2023/01/23 03:49:59;;;;;;;20.80;11.60;;;8.40;68.80;;;;;;5023128;28;20520;-77
2023/01/23 03:52:25;;;;;;;19.45;11.40;;;8.40;68.50;;;;;;5010109;28;20047;-77
2023/01/23 03:54:51;;;;;;;16.83;9.68;;;8.40;68.30;;;;;;5030315;28;20032;-78
2023/01/23 03:57:18;;;;;;;18.50;9.88;;;8.40;68.20;;;;;;5022678;28;20123;-78
2023/01/23 03:59:47;;;;;;;17.98;10.02;;;8.40;68.10;;;;;;5010155;28;20428;-78
2023/01/23 04:02:15;;;;;;;15.32;9.25;;;8.30;68.10;;;;;;5024027;28;20286;-77
2023/01/23 04:04:41;;;;;;;17.92;10.10;;;8.40;68.10;;;;;;5037420;28;20508;-77
2023/01/23 04:07:07;;;;;;;16.15;9.38;;;8.40;68.10;;;;;;5005492;28;20029;-78
2023/01/23 04:09:35;;;;;;;18.52;10.25;;;8.30;68.00;;;;;;5023721;28;20401;-78
2023/01/23 04:12:02;;;;;;;17.60;9.45;;;8.30;68.00;;;;;;5021022;28;20048;-77
2023/01/23 04:14:31;;;;;;;18.00;10.30;;;8.30;68.00;;;;;;5025651;28;20037;-77
2023/01/23 04:16:58;;;;;;;15.25;9.63;;;8.40;68.40;;;;;;5005753;28;20075;-78
2023/01/23 04:19:24;;;;;;;19.40;10.18;;;8.40;67.90;;;;;;5021691;28;20139;-82
2023/01/23 04:21:50;;;;;;;16.02;9.15;;;8.40;67.90;;;;;;5038535;28;20567;-79
2023/01/23 04:24:16;;;;;;;14.73;8.35;;;8.30;67.90;;;;;;5023430;28;20125;-79
2023/01/23 04:26:43;;;;;;;14.77;8.57;;;8.30;67.90;;;;;;5020988;28;20539;-83
2023/01/23 04:29:10;;;;;;;13.68;8.48;;;8.30;67.90;;;;;;5006055;28;20374;-81
2023/01/23 04:31:37;;;;;;;13.50;8.38;;;8.30;67.90;;;;;;5021004;28;20034;-83
2023/01/23 04:34:03;;;;;;;14.93;8.52;;;8.30;67.90;;;;;;5024484;28;20032;-79
2023/01/23 04:36:29;;;;;;;11.40;7.38;;;8.30;68.00;;;;;;5028853;28;20116;-79
2023/01/23 04:38:57;;;;;;;14.15;7.22;;;8.30;68.00;;;;;;5013923;28;20060;-80
2023/01/23 04:41:28;;;;;;;12.80;8.50;;;8.30;68.10;;;;;;5032429;28;20538;-80
2023/01/23 04:44:18;;;;;;;14.85;8.13;;;8.30;68.30;;;;;;5030817;28;20029;-81
2023/01/23 04:46:53;;;;;;;14.73;8.18;;;8.40;68.90;;;;;;5026398;28;20127;-77
2023/01/23 04:49:23;;;;;;;14.23;8.25;;;8.30;69.50;;;;;;4995895;28;20088;-80
2023/01/23 04:51:50;;;;;;;14.32;7.82;;;8.30;69.90;;;;;;5027208;28;20478;-78
2023/01/23 04:54:20;;;;;;;15.55;7.75;;;8.30;70.40;;;;;;5020747;28;20033;-80
2023/01/23 04:56:47;;;;;;;15.25;8.55;;;8.30;70.70;;;;;;5022905;28;20029;-78
2023/01/23 04:59:15;;;;;;;15.60;8.02;;;8.30;70.80;;;;;;5009268;28;20064;-78
2023/01/23 05:01:43;;;;;;;15.43;7.82;;;8.30;70.90;;;;;;5025360;28;20036;-78
2023/01/23 05:04:09;;;;;;;15.80;7.70;;;8.30;71.20;;;;;;5017170;28;20025;-78
2023/01/23 05:06:36;;;;;;;15.75;8.15;;;8.30;71.20;;;;;;5022976;28;20034;-77
2023/01/23 05:09:04;;;;;;;13.13;7.75;;;8.40;71.10;;;;;;5022635;28;20037;-78
2023/01/23 05:11:47;;;;;;;13.43;8.13;;;8.40;70.80;;;;;;5019687;28;20128;-77
2023/01/23 05:14:13;;;;;;;14.82;7.10;;;8.40;71.00;;;;;;5008300;28;20646;-77
2023/01/23 05:16:41;;;;;;;11.32;6.80;;;8.30;70.20;;;;;;5010047;28;20139;-76
2023/01/23 05:19:16;;;;;;;;;;;8.30;70.00;;;;;;5022705;28;20045;-77
2023/01/23 05:21:42;;;;;;;;;;;8.30;69.90;;;;;;5022167;28;19912;-77
2023/01/23 05:24:14;;;;;;;15.40;7.80;;;8.40;69.80;;;;;;5021718;28;20315;-78
2023/01/23 05:26:41;;;;;;;18.88;7.90;;;8.30;69.60;;;;;;5025830;28;20696;-77
2023/01/23 05:29:08;;;;;;;11.38;7.18;;;8.40;69.60;;;;;;5023061;28;20033;-78
2023/01/23 05:31:38;;;;;;;15.93;7.68;;;8.30;69.50;;;;;;5036223;28;20029;-77
2023/01/23 05:34:27;;;;;;;12.40;7.00;;;8.30;69.60;;;;;;5021529;28;20035;-77
2023/01/23 05:36:53;;;;;;;15.65;7.70;;;8.30;69.50;;;;;;5026247;28;21857;-79
2023/01/23 05:39:19;;;;;;;14.68;7.63;;;8.30;69.40;;;;;;5042867;28;20557;-78
2023/01/23 05:41:45;;;;;;;14.07;7.88;;;8.30;69.20;;;;;;5036378;28;20040;-77
2023/01/23 05:44:31;;;;;;;;;;;8.30;69.20;;;;;;4950398;28;20149;-77
2023/01/23 05:47:04;;;;;;;12.23;7.38;;;8.30;69.10;;;;;;4963799;28;19925;-77
2023/01/23 05:49:32;;;;;;;14.80;8.07;;;8.30;69.00;;;;;;4963883;28;20069;-77
2023/01/23 05:51:58;;;;;;;14.05;7.90;;;8.30;68.90;;;;;;4962512;28;20415;-77
2023/01/23 05:54:25;;;;;;;12.25;7.70;;;8.30;68.90;;;;;;4950877;28;20418;-77
2023/01/23 05:56:52;;;;;;;14.05;7.47;;;8.30;68.80;;;;;;4947530;28;20046;-77
2023/01/23 05:59:53;;;;;;;11.90;7.40;;;8.20;68.60;;;;;;4903997;29;20157;-75
2023/01/23 06:02:48;;;;;;;12.75;6.97;;;8.30;68.70;;;;;;4947019;28;20050;-83
2023/01/23 06:05:33;;;;;;;12.05;7.75;;;8.30;68.80;;;;;;4962776;28;20097;-79
2023/01/23 06:08:02;;;;;;;13.65;6.68;;;8.30;68.80;;;;;;4942029;28;20035;-78
2023/01/23 06:10:29;;;;;;;12.75;6.60;;;8.20;68.60;;;;;;4958660;28;20050;-80
2023/01/23 06:12:55;;;;;;;14.15;7.25;;;8.20;68.70;;;;;;4942662;28;20133;-78
2023/01/23 06:15:21;;;;;;;15.00;6.75;;;8.20;68.70;;;;;;4963587;28;20133;-79
2023/01/23 06:17:50;;;;;;;12.70;7.00;;;8.30;68.80;;;;;;4958033;28;20043;-81
2023/01/23 06:20:16;;;;;;;12.55;7.22;;;8.20;69.30;;;;;;4942383;28;20049;-81
2023/01/23 06:22:44;;;;;;;12.20;6.43;;;8.20;68.70;;;;;;5023473;28;20068;-80
2023/01/23 06:25:12;;;;;;;12.73;6.82;;;8.30;68.60;;;;;;5020281;28;20187;-80
2023/01/23 06:27:38;;;;;;;13.18;6.95;;;8.20;68.50;;;;;;5019905;28;20412;-79
2023/01/23 06:30:07;;;;;;;11.23;6.72;;;8.20;68.60;;;;;;5012496;28;20421;-78
2023/01/23 06:32:38;;;;;;;12.18;6.90;;;8.20;68.50;;;;;;5028781;28;20087;-80
2023/01/23 06:35:06;;;;;;;12.90;7.80;;;8.20;68.50;;;;;;5011074;28;20041;-80
2023/01/23 06:37:36;;;;;;;13.10;7.47;;;8.20;68.50;;;;;;5020520;28;20079;-80
2023/01/23 06:40:03;;;;;;;14.73;7.75;;;8.20;68.50;;;;;;5020421;28;20084;-79
2023/01/23 06:42:30;;;;;;;12.38;7.53;;;8.20;68.60;;;;;;5023450;28;20029;-76
2023/01/23 06:44:57;;;;;;;16.02;7.97;;;8.20;68.60;;;;;;5008927;28;20029;-74
2023/01/23 06:47:25;;;;;;;12.38;7.38;;;8.20;68.80;;;;;;5021450;28;20029;-76
2023/01/23 06:49:58;;;;;;;14.57;6.93;;;8.30;68.80;;;;;;5025088;28;20508;-76
2023/01/23 06:52:25;;;;;;;15.55;7.88;;;8.30;68.70;;;;;;5022863;28;20029;-77
2023/01/23 06:54:51;;;;;;;15.20;8.15;;;8.20;68.50;;;;;;5026093;28;20052;-76
2023/01/23 06:57:17;;;;;;;12.60;7.53;;;8.20;68.40;;;;;;5009305;28;20057;-75
2023/01/23 06:59:45;;;;;;;15.15;7.40;;;8.30;68.40;;;;;;5016050;28;20183;-76
2023/01/23 07:02:13;;;;;;;15.70;7.65;;;8.20;68.30;;;;;;5025293;28;20040;-75
2023/01/23 07:04:48;;;;;;;12.50;7.57;;;8.20;68.20;;;;;;5024827;28;20736;-75
2023/01/23 07:07:14;;;;;;;12.93;7.13;;;8.30;68.20;;;;;;5023008;28;20053;-75
2023/01/23 07:09:41;;;;;;;13.65;6.97;;;8.30;68.20;;;;;;5020999;28;20029;-75
2023/01/23 07:12:15;;;;;;;14.23;6.60;;;8.30;68.10;;;;;;5024501;28;20049;-75
2023/01/23 07:14:41;;;;;;;15.02;7.10;;;8.30;68.00;;;;;;5024404;28;20635;-75
2023/01/23 07:17:10;;;;;;;12.40;7.28;;;8.30;68.00;;;;;;5021424;28;20519;-75
2023/01/23 07:19:36;;;;;;;12.85;7.05;;;8.30;67.90;;;;;;5020782;28;20041;-75
2023/01/23 07:22:05;;;;;;;13.20;7.78;;;8.30;67.90;;;;;;5021145;28;20039;-75
2023/01/23 07:24:31;;;;;;;14.85;7.50;;;8.30;67.80;;;;;;5036201;28;20034;-75
2023/01/23 07:26:57;;;;;;;12.75;7.03;;;8.30;67.70;;;;;;5034338;28;20053;-76
2023/01/23 07:29:23;;;;;;;12.65;6.55;;;8.30;67.70;;;;;;5035328;28;20099;-75
2023/01/23 07:31:49;;;;;;;12.40;6.85;;;8.30;67.50;;;;;;5035731;28;20512;-75
2023/01/23 07:34:15;;;;;;;11.70;7.03;;;8.30;67.30;;;;;;5035236;28;20032;-73
2023/01/23 07:36:41;;;;;;;11.55;6.40;;;8.30;67.10;;;;;;5036493;28;20096;-76
2023/01/23 07:39:08;;;;;;;13.73;7.15;;;8.30;67.10;;;;;;5017776;28;20452;-75
2023/01/23 07:41:34;;;;;;;13.05;6.68;;;8.30;67.10;;;;;;5023214;28;20036;-75
2023/01/23 07:44:06;;;;;;;9.15;6.00;;;8.30;66.90;;;;;;5025020;28;20033;-76
2023/01/23 07:46:32;;;;;;;10.73;6.22;;;8.30;66.70;;;;;;5024248;28;20463;-76
2023/01/23 07:48:58;;;;;;;11.13;6.45;;;8.30;66.60;;;;;;5019527;28;20067;-79
2023/01/23 07:51:24;;;;;;;9.68;5.75;;;8.40;66.50;;;;;;5036293;28;20069;-78
2023/01/23 07:53:50;;;;;;;10.45;6.10;;;8.30;66.30;;;;;;5018426;28;20025;-77
2023/01/23 07:56:16;;;;;;;9.68;5.65;;;8.30;66.50;;;;;;5017190;28;20032;-77
2023/01/23 07:58:42;;;;;;;12.25;5.57;;;8.30;66.10;;;;;;5035011;28;20033;-77
2023/01/23 08:01:11;;;;;;;10.57;5.63;;;8.30;66.00;;;;;;5035261;28;20459;-77
2023/01/23 08:03:37;;;;;;;10.15;6.18;;;8.30;65.80;;;;;;5035071;28;20040;-77
2023/01/23 08:06:05;;;;;;;9.13;5.70;;;8.40;65.90;;;;;;5017862;28;20033;-77
2023/01/23 08:08:32;;;;;;;9.63;5.70;;;8.40;66.00;;;;;;5035950;28;20080;-76
2023/01/23 08:10:58;;;;;;;12.23;6.35;;;8.40;65.80;;;;;;5017512;28;20172;-76
2023/01/23 08:13:24;;;;;;;11.15;5.50;;;8.40;65.60;;;;;;5034435;28;20561;-77
2023/01/23 08:15:52;;;;;;;13.57;6.30;;;8.40;65.30;;;;;;5036850;28;20025;-76
2023/01/23 08:18:18;;;;;;;10.48;6.30;;;8.30;65.20;;;;;;5034416;28;20102;-76
2023/01/23 08:20:53;;;;;;;13.15;6.53;;;8.40;65.20;;;;;;5040103;28;20042;-77
2023/01/23 08:23:19;;;;;;;10.52;6.68;;;8.40;65.30;;;;;;5020614;28;20071;-78
2023/01/23 08:25:45;;;;;;;9.35;5.70;;;8.40;65.30;;;;;;5020182;28;20128;-78
2023/01/23 08:28:10;;;;;;;9.85;6.13;;;8.40;65.20;;;;;;5034744;28;20148;-77
2023/01/23 08:30:36;;;;;;;9.80;5.45;;;8.50;65.00;;;;;;5019482;28;20028;-77
2023/01/23 08:33:03;;;;;;;11.80;6.07;;;8.50;64.80;;;;;;5034673;28;20090;-77
2023/01/23 08:35:29;;;;;;;9.23;5.47;;;8.50;64.70;;;;;;5034306;28;20067;-76
2023/01/23 08:37:55;;;;;;;10.07;5.85;;;8.50;64.60;;;;;;5019938;28;20057;-76
2023/01/23 08:40:21;;;;;;;8.85;5.60;;;8.50;64.50;;;;;;5034586;28;20128;-76
2023/01/23 08:42:47;;;;;;;9.98;5.32;;;8.50;64.30;;;;;;5020325;28;20044;-76
2023/01/23 08:45:13;;;;;;;9.77;5.80;;;8.50;64.30;;;;;;5022265;28;20045;-76
2023/01/23 08:47:39;;;;;;;9.13;5.50;;;8.50;64.20;;;;;;5015185;28;20251;-77
2023/01/23 08:50:09;;;;;;;8.27;4.90;;;8.60;64.20;;;;;;5034246;28;20089;-77
2023/01/23 08:53:10;;;;;;;9.63;5.63;;;8.60;64.10;;;;;;5019814;28;20049;-77
2023/01/23 09:03:45;;;;;;;8.68;5.07;;;8.60;64.30;;;;;;4949720;28;20238;-77
2023/01/23 09:06:20;;;;;;;11.05;6.40;;;8.60;63.70;;;;;;4944402;28;20157;-75
2023/01/23 09:08:50;;;;;;;9.65;5.72;;;8.50;63.60;;;;;;4944988;28;20501;-76
2023/01/23 09:11:19;;;;;;;11.85;6.15;;;8.60;63.70;;;;;;4944107;28;20058;-77
2023/01/23 09:13:47;;;;;;;8.50;5.90;;;8.50;63.70;;;;;;4956416;28;20538;-76
2023/01/23 09:16:16;;;;;;;9.00;5.30;;;8.50;63.60;;;;;;4943949;28;20633;-74
2023/01/23 09:18:42;;;;;;;9.98;6.13;;;8.50;63.40;;;;;;4944742;28;20035;-76
2023/01/23 09:21:14;;;;;;;7.60;4.93;;;8.50;63.30;;;;;;4954301;28;20054;-77
2023/01/23 09:23:43;;;;;;;9.77;6.03;;;8.50;63.20;;;;;;4940302;28;20655;-77
2023/01/23 09:26:12;;;;;;;11.60;5.22;;;8.50;63.20;;;;;;4956863;28;20430;-78
2023/01/23 09:28:47;;;;;;;10.10;5.57;;;8.50;63.10;;;;;;4929057;28;20066;-76
2023/01/23 09:31:18;;;;;;;11.63;5.88;;;8.50;63.20;;;;;;4946585;28;20042;-76
2023/01/23 09:34:06;;;;;;;;;;;8.50;63.10;;;;;;4965894;28;20749;-75
2023/01/23 09:37:02;;;;;;;8.63;5.22;;;8.50;63.00;;;;;;5023980;28;19923;-76
2023/01/23 09:39:52;;;;;;;8.98;5.32;;;8.50;62.90;;;;;;4997976;28;20045;-76
2023/01/23 09:42:28;;;;;;;8.23;5.57;;;8.50;62.80;;;;;;5016870;28;20500;-77
2023/01/23 09:45:06;;;;;;;9.07;5.72;;;8.50;62.80;;;;;;5037872;28;20633;-76
2023/01/23 09:47:53;;;;;;;8.18;5.25;;;8.50;62.70;;;;;;5020052;28;20040;-74
2023/01/23 09:50:33;;;;;;;9.57;6.03;;;8.50;62.60;;;;;;5006600;28;20520;-75
2023/01/23 09:56:34;;;;;;;8.80;5.68;;;8.50;62.50;;;;;;5023010;28;20036;-76
2023/01/23 09:59:11;;;;;;;8.98;5.95;;;8.40;62.20;;;;;;5018571;28;20041;-75
2023/01/23 10:01:37;;;;;;;9.90;6.20;;;8.40;62.30;;;;;;5033043;28;20100;-76
2023/01/23 10:04:10;;;;;;;11.38;6.85;;;8.40;62.40;;;;;;5019206;28;20022;-77
2023/01/23 10:07:04;;;;;;;12.88;7.10;;;8.40;62.40;;;;;;5032261;28;20021;-74
2023/01/23 10:09:39;;;;;;;13.90;7.55;;;8.40;62.50;;;;;;5019531;28;20040;-76
2023/01/23 10:12:32;;;;;;;16.42;9.70;;;8.50;62.60;;;;;;5033682;28;20048;-74
2023/01/23 10:14:58;;;;;;;17.55;10.65;;;8.40;62.70;;;;;;5033121;28;20037;-73
2023/01/23 10:18:03;;;;;;;18.75;10.55;;;8.40;62.60;;;;;;5018203;28;20033;-75
2023/01/23 10:21:03;;;;;;;16.33;9.68;;;8.40;62.70;;;;;;5005569;28;20051;-74
2023/01/23 10:23:50;;;;;;;16.20;9.73;;;8.40;62.50;;;;;;5033157;28;20029;-77
2023/01/23 10:26:23;;;;;;;18.35;9.35;;;8.40;62.50;;;;;;5018544;28;20083;-77
2023/01/23 10:29:18;;;;;;;15.48;9.30;;;8.40;62.30;;;;;;5004979;28;20042;-75
2023/01/23 10:32:00;;;;;;;16.13;9.23;;;8.40;62.20;;;;;;4999005;28;20036;-75
2023/01/23 10:35:02;;;;;;;18.60;9.23;;;8.40;62.00;;;;;;5023033;28;20124;-75
2023/01/23 10:37:45;;;;;;;17.75;9.07;;;8.40;62.00;;;;;;5011384;28;20033;-75
2023/01/23 10:41:12;;;;;;;16.05;9.40;;;8.40;61.80;;;;;;5039529;28;20128;-76
2023/01/23 10:43:09;;;;;;;15.15;9.40;;;8.40;61.70;;;;;;5021904;28;20036;-77
2023/01/23 10:45:36;;;;;;;15.25;8.82;;;8.40;61.70;;;;;;5039040;28;20041;-75
2023/01/23 10:48:24;;;;;;;17.80;9.65;;;8.40;61.50;;;;;;5039099;28;20044;-75
2023/01/23 10:50:50;;;;;;;15.20;9.38;;;8.40;61.60;;;;;;5038316;28;20029;-75
2023/01/23 10:53:19;;;;;;;17.08;9.43;;;8.40;61.60;;;;;;5038565;28;20091;-76
2023/01/23 10:55:47;;;;;;;14.50;8.60;;;8.40;61.60;;;;;;5039568;28;20163;-76
2023/01/23 10:58:27;;;;;;;19.85;10.05;;;8.40;61.60;;;;;;5039542;28;20586;-76
2023/01/23 11:00:53;;;;;;;17.58;9.77;;;8.40;61.50;;;;;;5039491;28;20041;-75
2023/01/23 11:03:19;;;;;;;16.02;9.63;;;8.40;61.40;;;;;;5037024;28;20094;-76
2023/01/23 11:06:02;;;;;;;17.05;9.10;;;8.40;61.40;;;;;;5037855;28;20094;-76
2023/01/23 11:08:35;;;;;;;19.00;10.38;;;8.40;61.50;;;;;;5038706;28;20029;-75
2023/01/23 11:11:23;;;;;;;18.02;10.32;;;8.40;61.40;;;;;;5025449;28;20033;-75
2023/01/23 11:14:12;;;;;;;16.52;9.80;;;8.40;61.50;;;;;;5038255;28;20037;-75
2023/01/23 11:16:39;;;;;;;17.30;9.52;;;8.40;61.40;;;;;;5027367;28;20029;-75
2023/01/23 11:19:08;;;;;;;15.00;8.65;;;8.40;61.40;;;;;;5036571;28;20483;-76
2023/01/23 11:21:36;;;;;;;15.75;9.43;;;8.40;61.30;;;;;;5038632;28;20036;-75
2023/01/23 11:24:20;;;;;;;15.07;8.93;;;8.40;61.40;;;;;;5038726;28;20025;-75
2023/01/23 11:26:46;;;;;;;18.33;9.48;;;8.50;61.60;;;;;;5036205;28;20033;-75
2023/01/23 11:29:21;;;;;;;15.43;8.85;;;8.40;61.50;;;;;;5020524;28;20125;-76
2023/01/23 11:31:51;;;;;;;15.27;8.50;;;8.50;61.60;;;;;;5021776;28;20044;-75
2023/01/23 11:34:23;;;;;;;16.67;9.23;;;8.50;61.60;;;;;;5038060;28;20060;-74
2023/01/23 11:37:31;;;;;;;17.60;10.40;;;8.40;61.50;;;;;;5037697;28;20119;-75
2023/01/23 11:40:04;;;;;;;16.10;9.10;;;8.50;61.60;;;;;;4944326;28;20526;-75
2023/01/23 11:42:30;;;;;;;16.83;9.35;;;8.50;61.50;;;;;;4959917;28;20678;-75
2023/01/23 11:44:59;;;;;;;18.08;9.80;;;8.50;61.50;;;;;;4945204;28;20039;-74
2023/01/23 11:48:05;;;;;;;18.20;10.00;;;8.50;61.60;;;;;;4963159;28;20562;-76
2023/01/23 11:50:46;;;;;;;18.17;10.03;;;8.50;61.70;;;;;;4958401;28;20042;-75
2023/01/23 11:53:15;;;;;;;16.65;10.05;;;8.50;61.70;;;;;;4928037;28;20042;-75
2023/01/23 11:56:04;;;;;;;18.17;10.40;;;8.50;61.60;;;;;;4959273;28;20083;-75
2023/01/23 11:58:54;;;;;;;17.27;10.23;;;8.50;61.60;;;;;;4960739;28;20039;-75
2023/01/23 12:01:43;;;;;;;17.02;10.48;;;8.50;61.60;;;;;;4931913;28;20094;-74
2023/01/23 12:04:42;;;;;;;19.35;11.05;;;8.50;61.60;;;;;;4961144;28;20039;-74
2023/01/23 12:07:23;;;;;;;19.90;10.77;;;8.40;61.60;;;;;;4945947;28;20053;-74
2023/01/23 12:10:24;;;;;;;19.27;11.15;;;8.40;61.50;;;;;;4947082;28;20062;-75
2023/01/23 12:13:23;;;;;;;19.13;10.63;;;8.40;61.60;;;;;;4911473;28;20048;-74
2023/01/23 12:15:51;;;;;;;19.88;10.32;;;8.40;61.70;;;;;;4980633;28;20433;-76
2023/01/23 12:18:38;;;;;;;19.08;9.60;;;8.40;61.80;;;;;;4978408;28;20042;-75
2023/01/23 12:21:27;;;;;;;17.55;10.77;;;8.40;61.80;;;;;;4979046;28;20034;-73
2023/01/23 12:24:30;;;;;;;18.63;10.30;;;8.40;61.80;;;;;;4977892;28;20042;-76
2023/01/23 12:27:28;;;;;;;20.15;11.25;;;8.40;61.80;;;;;;4965890;28;20544;-74
2023/01/23 12:30:12;;;;;;;21.45;10.40;;;8.40;61.80;;;;;;4979426;28;20042;-74
2023/01/23 12:32:59;;;;;;;19.23;10.55;;;8.40;61.80;;;;;;4981191;28;20177;-73
2023/01/23 12:35:28;;;;;;;19.60;10.68;;;8.40;61.80;;;;;;4955262;28;20190;-74
2023/01/23 12:38:00;;;;;;;19.83;11.35;;;8.40;61.80;;;;;;4961765;28;20037;-73
2023/01/23 12:41:04;;;;;;;20.13;11.20;;;8.40;61.80;;;;;;4962031;28;20087;-74
2023/01/23 12:43:42;;;;;;;20.58;10.98;;;8.40;61.90;;;;;;4943648;28;20049;-73
2023/01/23 12:46:18;;;;;;;20.00;10.35;;;8.50;61.90;;;;;;4940082;28;20114;-74
2023/01/23 12:48:46;;;;;;;;;;;8.50;62.00;;;;;;4925600;28;20031;-74
2023/01/23 12:51:16;;;;;;;20.73;9.90;;;8.50;62.00;;;;;;4985682;28;20226;-75
2023/01/23 12:53:44;;;;;;;19.55;10.40;;;8.50;61.90;;;;;;4980793;28;20062;-74
2023/01/23 12:56:16;;;;;;;18.17;9.95;;;8.50;62.00;;;;;;4997500;28;20433;-74
2023/01/23 12:59:17;;;;;;;20.85;10.70;;;8.50;61.90;;;;;;4999223;28;20088;-74
2023/01/23 13:02:02;;;;;;;20.25;9.90;;;8.50;61.90;;;;;;4997702;28;20042;-74
2023/01/23 13:04:52;;;;;;;20.73;10.85;;;8.50;61.80;;;;;;4997868;28;20416;-73
2023/01/23 13:07:41;;;;;;;20.13;10.30;;;8.50;61.60;;;;;;4997832;28;20034;-72
2023/01/23 13:10:23;;;;;;;19.35;10.65;;;8.40;61.60;;;;;;4998592;28;20041;-74
2023/01/23 13:12:54;;;;;;;22.58;10.68;;;8.50;61.70;;;;;;4997938;28;20078;-75
2023/01/23 13:15:30;;;;;;;25.73;9.95;;;8.40;61.60;;;;;;4997422;28;20038;-75
2023/01/23 13:17:55;;;;;;;19.67;11.20;;;8.40;61.60;;;;;;4998109;28;20042;-74
2023/01/23 13:23:22;;;;;;;21.85;11.00;;;8.40;61.60;;;;;;5035610;28;20025;-75
2023/01/23 13:25:49;;;;;;;23.35;11.23;;;8.40;61.60;;;;;;5036099;28;20403;-74
2023/01/23 13:28:33;;;;;;;22.90;10.82;;;8.40;61.60;;;;;;5036452;28;20041;-74
2023/01/23 13:31:01;;;;;;;18.00;9.65;;;8.40;61.60;;;;;;5036298;28;20404;-75